Startpagina
METAR-TAF:

METAR-TAF

Vliegvelden :

Adelaide, Australië

breedte: 34-56S, lengte: 138-31E, hoogte: 6 m

Actueel weer

Dit bericht is 27 minuten geleden gemaakt, om 12:30 UTC
Wind 9 kt uit het zuidwesten
Temperatuur 16°C
Vochtigheid 72%
Druk 1030 hPa
Zicht 10 km of meer
Gebroken wolken op 4200 ft

METAR: YPAD 211230Z 23009KT 9999 BKN042 16/11 Q1030 NOSIG

Tijdstip: 22:27 (12:57 UTC)

Verwachting

Dit bericht is 1 uur en het 34 minuten geleden gemaakt, om 11:23 UTC
Verwachting geldig van 21 om 12 UTC tot 22 om 18 UTC
Wind 8 kt uit het zuidwesten
Zicht 10 km of meer
Verspreide wolken op 1500 ft
Gebroken wolken op 2500 ft
lichte regenbuien
Van 22 om 0200 UTC
Wind 10 kt uit het zuidwesten
Zicht 10 km of meer
Gebroken wolken op 3000 ft
lichte regenbuien
Van 22 om 1000 UTC
Wind 4 kt uit het zuidwesten
Zicht 10 km of meer
Gebroken wolken op 3500 ft

TAF: YPAD 211123Z 2112/2218 23008KT 9999 -SHRA SCT015 BKN025 FM220200 22010KT 9999 -SHRA BKN030 FM221000 22004KT 9999 BKN035

Waarnemingen en weersverwachtingen van meer dan 4000 vliegvelden (METAR en TAF).

De beschikbare stations zijn de gele en rode punten op de kaart.

Ga met uw muis naar het station om de naam te zien.

Klik dan om waarnemingen en weersverwachtingen te zien.

kaart wijzigen: klik op de groene knoppen met een zwart kruis om in te zoomen, op de groene knop met een streepje om uit te zoomen of op de groene pijlen voor aangrenzende kaarten.


METAR-TAF: